sensor_id;sensor_type;location;lat;lon;timestamp;temperature;humidity
18317;DHT22;9284;52.298;21.164;2024-01-10T00:02:09;-7.90;1.00
18317;DHT22;9284;52.298;21.164;2024-01-10T00:04:38;-7.80;1.00
18317;DHT22;9284;52.298;21.164;2024-01-10T00:07:08;-7.80;1.00
18317;DHT22;9284;52.298;21.164;2024-01-10T00:09:41;-7.90;1.00
18317;DHT22;9284;52.298;21.164;2024-01-10T00:12:10;-7.90;1.00
18317;DHT22;9284;52.298;21.164;2024-01-10T00:14:38;-8.00;1.00
18317;DHT22;9284;52.298;21.164;2024-01-10T00:17:07;-8.10;1.00
18317;DHT22;9284;52.298;21.164;2024-01-10T00:19:35;-8.30;1.00
18317;DHT22;9284;52.298;21.164;2024-01-10T00:22:06;-8.40;1.00
18317;DHT22;9284;52.298;21.164;2024-01-10T00:24:34;-8.40;1.00
18317;DHT22;9284;52.298;21.164;2024-01-10T00:27:07;-8.60;1.00
18317;DHT22;9284;52.298;21.164;2024-01-10T00:29:37;-8.70;1.00
18317;DHT22;9284;52.298;21.164;2024-01-10T00:32:06;-8.70;1.00
18317;DHT22;9284;52.298;21.164;2024-01-10T00:34:35;-8.80;1.00
18317;DHT22;9284;52.298;21.164;2024-01-10T00:37:04;-8.90;1.00
18317;DHT22;9284;52.298;21.164;2024-01-10T00:39:32;-8.90;99.90
18317;DHT22;9284;52.298;21.164;2024-01-10T00:42:03;-8.90;99.90
18317;DHT22;9284;52.298;21.164;2024-01-10T00:44:35;-8.90;99.90
18317;DHT22;9284;52.298;21.164;2024-01-10T00:47:03;-8.90;99.90
18317;DHT22;9284;52.298;21.164;2024-01-10T00:49:32;-9.00;99.90
18317;DHT22;9284;52.298;21.164;2024-01-10T00:52:01;-8.70;99.90
18317;DHT22;9284;52.298;21.164;2024-01-10T00:54:29;-8.70;99.90
18317;DHT22;9284;52.298;21.164;2024-01-10T00:56:58;-8.60;99.90
18317;DHT22;9284;52.298;21.164;2024-01-10T00:59:27;-8.50;34.00
18317;DHT22;9284;52.298;21.164;2024-01-10T01:01:58;-8.40;1.00
18317;DHT22;9284;52.298;21.164;2024-01-10T01:04:28;-8.30;1.00
18317;DHT22;9284;52.298;21.164;2024-01-10T01:06:57;-8.20;1.00
18317;DHT22;9284;52.298;21.164;2024-01-10T01:09:25;-8.10;1.00
18317;DHT22;9284;52.298;21.164;2024-01-10T01:11:54;-8.10;1.00
18317;DHT22;9284;52.298;21.164;2024-01-10T01:14:22;-8.10;1.00
18317;DHT22;9284;52.298;21.164;2024-01-10T01:16:53;-8.10;1.00
18317;DHT22;9284;52.298;21.164;2024-01-10T01:19:23;-8.00;1.00
18317;DHT22;9284;52.298;21.164;2024-01-10T01:21:52;-7.90;1.00
18317;DHT22;9284;52.298;21.164;2024-01-10T01:24:20;-8.10;1.00
18317;DHT22;9284;52.298;21.164;2024-01-10T01:26:48;-8.00;1.00
18317;DHT22;9284;52.298;21.164;2024-01-10T01:29:17;-7.90;1.00
18317;DHT22;9284;52.298;21.164;2024-01-10T01:31:45;-8.10;1.00
18317;DHT22;9284;52.298;21.164;2024-01-10T01:34:14;-8.10;1.00
18317;DHT22;9284;52.298;21.164;2024-01-10T01:36:44;-8.00;1.00
18317;DHT22;9284;52.298;21.164;2024-01-10T01:39:13;-8.10;1.00
18317;DHT22;9284;52.298;21.164;2024-01-10T01:41:41;-8.10;1.00
18317;DHT22;9284;52.298;21.164;2024-01-10T01:44:09;-8.10;1.00
18317;DHT22;9284;52.298;21.164;2024-01-10T01:46:41;-8.10;1.00
18317;DHT22;9284;52.298;21.164;2024-01-10T01:49:14;-8.20;1.00
18317;DHT22;9284;52.298;21.164;2024-01-10T01:51:44;-8.10;1.00
18317;DHT22;9284;52.298;21.164;2024-01-10T01:54:13;-8.00;1.00
18317;DHT22;9284;52.298;21.164;2024-01-10T01:56:42;-8.20;1.00
18317;DHT22;9284;52.298;21.164;2024-01-10T01:59:12;-8.20;1.00
18317;DHT22;9284;52.298;21.164;2024-01-10T02:01:41;-8.10;1.00
18317;DHT22;9284;52.298;21.164;2024-01-10T02:04:09;-8.10;1.00
18317;DHT22;9284;52.298;21.164;2024-01-10T02:06:38;-8.10;1.00
18317;DHT22;9284;52.298;21.164;2024-01-10T02:09:08;-8.20;1.00
18317;DHT22;9284;52.298;21.164;2024-01-10T02:11:37;-8.00;1.00
18317;DHT22;9284;52.298;21.164;2024-01-10T02:14:06;-8.20;1.00
18317;DHT22;9284;52.298;21.164;2024-01-10T02:16:34;-8.30;1.00
18317;DHT22;9284;52.298;21.164;2024-01-10T02:19:17;-8.30;1.00
18317;DHT22;9284;52.298;21.164;2024-01-10T02:21:46;-8.30;24.60
18317;DHT22;9284;52.298;21.164;2024-01-10T02:24:16;-8.40;62.20
18317;DHT22;9284;52.298;21.164;2024-01-10T02:26:46;-8.40;43.10
18317;DHT22;9284;52.298;21.164;2024-01-10T02:29:14;-8.40;77.20
18317;DHT22;9284;52.298;21.164;2024-01-10T02:31:44;-8.40;77.00
18317;DHT22;9284;52.298;21.164;2024-01-10T02:34:14;-8.40;72.20
18317;DHT22;9284;52.298;21.164;2024-01-10T02:36:42;-8.40;79.70
18317;DHT22;9284;52.298;21.164;2024-01-10T02:39:12;-8.40;69.50
18317;DHT22;9284;52.298;21.164;2024-01-10T02:41:41;-8.40;99.90
18317;DHT22;9284;52.298;21.164;2024-01-10T02:44:12;-8.40;49.90
18317;DHT22;9284;52.298;21.164;2024-01-10T02:46:41;-8.50;78.80
18317;DHT22;9284;52.298;21.164;2024-01-10T02:49:10;-8.40;94.20
18317;DHT22;9284;52.298;21.164;2024-01-10T02:51:40;-8.40;64.60
18317;DHT22;9284;52.298;21.164;2024-01-10T02:54:08;-8.40;84.20
18317;DHT22;9284;52.298;21.164;2024-01-10T02:56:37;-8.40;99.90
18317;DHT22;9284;52.298;21.164;2024-01-10T02:59:06;-8.40;99.90
18317;DHT22;9284;52.298;21.164;2024-01-10T03:01:37;-8.40;99.90
18317;DHT22;9284;52.298;21.164;2024-01-10T03:04:07;-8.40;99.90
18317;DHT22;9284;52.298;21.164;2024-01-10T03:06:37;-8.40;99.90
18317;DHT22;9284;52.298;21.164;2024-01-10T03:09:06;-8.40;99.90
18317;DHT22;9284;52.298;21.164;2024-01-10T03:11:35;-8.40;99.90
18317;DHT22;9284;52.298;21.164;2024-01-10T03:14:09;-8.40;99.90
18317;DHT22;9284;52.298;21.164;2024-01-10T03:16:40;-8.40;99.90
18317;DHT22;9284;52.298;21.164;2024-01-10T03:19:09;-8.40;99.90
18317;DHT22;9284;52.298;21.164;2024-01-10T03:21:37;-8.40;99.90
18317;DHT22;9284;52.298;21.164;2024-01-10T03:24:06;-8.40;99.90
18317;DHT22;9284;52.298;21.164;2024-01-10T03:26:35;-8.40;99.90
18317;DHT22;9284;52.298;21.164;2024-01-10T03:29:03;-8.40;99.90
18317;DHT22;9284;52.298;21.164;2024-01-10T03:31:32;-8.40;99.90
18317;DHT22;9284;52.298;21.164;2024-01-10T03:34:05;-8.30;99.90
18317;DHT22;9284;52.298;21.164;2024-01-10T03:36:33;-8.20;99.90
18317;DHT22;9284;52.298;21.164;2024-01-10T03:39:02;-8.10;99.90
18317;DHT22;9284;52.298;21.164;2024-01-10T03:41:31;-8.20;99.90
18317;DHT22;9284;52.298;21.164;2024-01-10T03:43:59;-8.20;99.90
18317;DHT22;9284;52.298;21.164;2024-01-10T03:46:28;-8.20;99.90
18317;DHT22;9284;52.298;21.164;2024-01-10T03:48:56;-8.20;99.90
18317;DHT22;9284;52.298;21.164;2024-01-10T03:51:26;-8.10;99.90
18317;DHT22;9284;52.298;21.164;2024-01-10T03:53:56;-8.10;99.90
18317;DHT22;9284;52.298;21.164;2024-01-10T03:56:27;-8.00;99.90
18317;DHT22;9284;52.298;21.164;2024-01-10T03:59:00;-8.20;99.90
18317;DHT22;9284;52.298;21.164;2024-01-10T04:01:32;-8.20;99.90
18317;DHT22;9284;52.298;21.164;2024-01-10T04:04:00;-8.20;99.90
18317;DHT22;9284;52.298;21.164;2024-01-10T04:06:30;-8.20;99.90
18317;DHT22;9284;52.298;21.164;2024-01-10T04:08:59;-8.30;99.90
18317;DHT22;9284;52.298;21.164;2024-01-10T04:11:27;-8.30;99.90
18317;DHT22;9284;52.298;21.164;2024-01-10T04:13:58;-8.20;99.90
18317;DHT22;9284;52.298;21.164;2024-01-10T04:16:27;-8.20;99.90
18317;DHT22;9284;52.298;21.164;2024-01-10T04:18:55;-8.20;99.90
18317;DHT22;9284;52.298;21.164;2024-01-10T04:21:26;-8.10;99.90
18317;DHT22;9284;52.298;21.164;2024-01-10T04:23:56;-8.20;99.90
18317;DHT22;9284;52.298;21.164;2024-01-10T04:26:25;-8.20;99.90
18317;DHT22;9284;52.298;21.164;2024-01-10T04:28:53;-8.20;1.00
18317;DHT22;9284;52.298;21.164;2024-01-10T04:31:22;-8.30;1.00
18317;DHT22;9284;52.298;21.164;2024-01-10T04:33:50;-8.30;1.00
18317;DHT22;9284;52.298;21.164;2024-01-10T04:36:19;-8.30;1.00
18317;DHT22;9284;52.298;21.164;2024-01-10T04:38:47;-8.30;1.00
18317;DHT22;9284;52.298;21.164;2024-01-10T04:41:17;-8.40;1.00
18317;DHT22;9284;52.298;21.164;2024-01-10T04:43:48;-8.30;1.00
18317;DHT22;9284;52.298;21.164;2024-01-10T04:46:17;-8.40;1.00
18317;DHT22;9284;52.298;21.164;2024-01-10T04:48:45;-8.40;1.00
18317;DHT22;9284;52.298;21.164;2024-01-10T04:51:14;-8.40;1.00
18317;DHT22;9284;52.298;21.164;2024-01-10T04:53:44;-8.40;1.00
18317;DHT22;9284;52.298;21.164;2024-01-10T04:56:14;-8.50;1.00
18317;DHT22;9284;52.298;21.164;2024-01-10T04:58:44;-8.40;1.00
18317;DHT22;9284;52.298;21.164;2024-01-10T05:01:14;-8.40;1.00
18317;DHT22;9284;52.298;21.164;2024-01-10T05:03:42;-8.40;1.00
18317;DHT22;9284;52.298;21.164;2024-01-10T05:06:11;-8.40;1.00
18317;DHT22;9284;52.298;21.164;2024-01-10T05:08:40;-8.50;1.00
18317;DHT22;9284;52.298;21.164;2024-01-10T05:11:08;-8.40;1.00
18317;DHT22;9284;52.298;21.164;2024-01-10T05:13:37;-8.50;1.00
18317;DHT22;9284;52.298;21.164;2024-01-10T05:16:07;-8.50;1.00
18317;DHT22;9284;52.298;21.164;2024-01-10T05:18:36;-8.50;1.00
18317;DHT22;9284;52.298;21.164;2024-01-10T05:21:05;-8.40;1.00
18317;DHT22;9284;52.298;21.164;2024-01-10T05:23:33;-8.30;1.00
18317;DHT22;9284;52.298;21.164;2024-01-10T05:26:02;-8.50;1.00
18317;DHT22;9284;52.298;21.164;2024-01-10T05:28:31;-8.50;1.00
18317;DHT22;9284;52.298;21.164;2024-01-10T05:31:00;-8.40;1.00
18317;DHT22;9284;52.298;21.164;2024-01-10T05:33:30;-8.40;1.00
18317;DHT22;9284;52.298;21.164;2024-01-10T05:35:59;-8.50;1.00
18317;DHT22;9284;52.298;21.164;2024-01-10T05:38:27;-8.60;1.00
18317;DHT22;9284;52.298;21.164;2024-01-10T05:40:57;-8.50;1.00
18317;DHT22;9284;52.298;21.164;2024-01-10T05:43:25;-8.50;1.00
18317;DHT22;9284;52.298;21.164;2024-01-10T05:45:54;-8.60;1.00
18317;DHT22;9284;52.298;21.164;2024-01-10T05:48:22;-8.60;1.00
18317;DHT22;9284;52.298;21.164;2024-01-10T05:50:52;-8.50;1.00
18317;DHT22;9284;52.298;21.164;2024-01-10T05:53:21;-8.50;1.00
18317;DHT22;9284;52.298;21.164;2024-01-10T05:55:49;-8.50;1.00
18317;DHT22;9284;52.298;21.164;2024-01-10T05:58:18;-8.50;1.00
18317;DHT22;9284;52.298;21.164;2024-01-10T06:00:47;-8.40;1.00
18317;DHT22;9284;52.298;21.164;2024-01-10T06:03:16;-8.50;1.00
18317;DHT22;9284;52.298;21.164;2024-01-10T06:05:44;-8.40;1.00
18317;DHT22;9284;52.298;21.164;2024-01-10T06:08:15;-8.40;1.00
18317;DHT22;9284;52.298;21.164;2024-01-10T06:10:44;-8.40;1.00
18317;DHT22;9284;52.298;21.164;2024-01-10T06:13:12;-8.40;1.00
18317;DHT22;9284;52.298;21.164;2024-01-10T06:15:41;-8.30;1.00
18317;DHT22;9284;52.298;21.164;2024-01-10T06:18:09;-8.40;1.00
18317;DHT22;9284;52.298;21.164;2024-01-10T06:20:38;-8.30;1.00
18317;DHT22;9284;52.298;21.164;2024-01-10T06:23:09;-8.40;38.70
18317;DHT22;9284;52.298;21.164;2024-01-10T06:25:41;-8.40;75.00
18317;DHT22;9284;52.298;21.164;2024-01-10T06:28:10;-8.50;99.90
18317;DHT22;9284;52.298;21.164;2024-01-10T06:30:38;-8.40;99.90
18317;DHT22;9284;52.298;21.164;2024-01-10T06:33:07;-8.50;99.90
18317;DHT22;9284;52.298;21.164;2024-01-10T06:35:35;-8.40;99.90
18317;DHT22;9284;52.298;21.164;2024-01-10T06:38:04;-8.40;99.90
18317;DHT22;9284;52.298;21.164;2024-01-10T06:40:33;-8.40;1.00
18317;DHT22;9284;52.298;21.164;2024-01-10T06:43:03;-8.40;1.00
18317;DHT22;9284;52.298;21.164;2024-01-10T06:45:32;-8.40;1.00
18317;DHT22;9284;52.298;21.164;2024-01-10T06:48:00;-8.40;1.00
18317;DHT22;9284;52.298;21.164;2024-01-10T06:50:30;-8.40;1.00
18317;DHT22;9284;52.298;21.164;2024-01-10T06:52:59;-8.40;1.00
18317;DHT22;9284;52.298;21.164;2024-01-10T06:55:27;-8.40;1.00
18317;DHT22;9284;52.298;21.164;2024-01-10T06:57:56;-8.40;1.00
18317;DHT22;9284;52.298;21.164;2024-01-10T07:00:25;-8.40;99.90
18317;DHT22;9284;52.298;21.164;2024-01-10T07:02:54;-8.40;99.90
18317;DHT22;9284;52.298;21.164;2024-01-10T07:05:22;-8.30;99.90
18317;DHT22;9284;52.298;21.164;2024-01-10T07:07:51;-8.30;99.90
18317;DHT22;9284;52.298;21.164;2024-01-10T07:10:19;-8.30;1.00
18317;DHT22;9284;52.298;21.164;2024-01-10T07:12:51;-8.20;1.00
18317;DHT22;9284;52.298;21.164;2024-01-10T07:15:20;-8.10;1.00
18317;DHT22;9284;52.298;21.164;2024-01-10T07:17:50;-8.10;1.00
18317;DHT22;9284;52.298;21.164;2024-01-10T07:20:20;-8.10;1.00
18317;DHT22;9284;52.298;21.164;2024-01-10T07:22:51;-8.10;1.00
18317;DHT22;9284;52.298;21.164;2024-01-10T07:25:23;-8.00;26.50
18317;DHT22;9284;52.298;21.164;2024-01-10T07:27:52;-8.00;99.90
18317;DHT22;9284;52.298;21.164;2024-01-10T07:30:21;-8.00;1.00
18317;DHT22;9284;52.298;21.164;2024-01-10T07:32:53;-8.10;1.00
18317;DHT22;9284;52.298;21.164;2024-01-10T07:35:22;-8.00;41.60
18317;DHT22;9284;52.298;21.164;2024-01-10T07:37:56;-8.00;99.90
18317;DHT22;9284;52.298;21.164;2024-01-10T07:40:27;-8.00;99.90
18317;DHT22;9284;52.298;21.164;2024-01-10T07:42:56;-7.90;1.00
18317;DHT22;9284;52.298;21.164;2024-01-10T07:45:27;-8.00;1.00
18317;DHT22;9284;52.298;21.164;2024-01-10T07:48:04;-8.00;1.00
18317;DHT22;9284;52.298;21.164;2024-01-10T07:50:35;-7.90;1.00
18317;DHT22;9284;52.298;21.164;2024-01-10T07:53:06;-7.90;64.60
18317;DHT22;9284;52.298;21.164;2024-01-10T07:55:35;-7.80;1.00
18317;DHT22;9284;52.298;21.164;2024-01-10T07:58:04;-7.70;2.30
18317;DHT22;9284;52.298;21.164;2024-01-10T08:00:34;-7.70;1.00
18317;DHT22;9284;52.298;21.164;2024-01-10T08:03:04;-7.80;1.00
18317;DHT22;9284;52.298;21.164;2024-01-10T08:05:33;-7.70;99.90
18317;DHT22;9284;52.298;21.164;2024-01-10T08:08:02;-7.70;99.90
18317;DHT22;9284;52.298;21.164;2024-01-10T08:10:32;-7.70;99.90
18317;DHT22;9284;52.298;21.164;2024-01-10T08:13:05;-7.60;99.90
18317;DHT22;9284;52.298;21.164;2024-01-10T08:15:33;-7.50;99.90
18317;DHT22;9284;52.298;21.164;2024-01-10T08:18:04;-7.50;99.90
18317;DHT22;9284;52.298;21.164;2024-01-10T08:20:36;-7.60;99.90
18317;DHT22;9284;52.298;21.164;2024-01-10T08:23:05;-7.60;80.30
18317;DHT22;9284;52.298;21.164;2024-01-10T08:25:34;-7.50;1.00
18317;DHT22;9284;52.298;21.164;2024-01-10T08:28:02;-7.50;1.00
18317;DHT22;9284;52.298;21.164;2024-01-10T08:30:33;-7.50;1.00
18317;DHT22;9284;52.298;21.164;2024-01-10T08:33:04;-7.50;1.00
18317;DHT22;9284;52.298;21.164;2024-01-10T08:35:34;-7.40;1.00
18317;DHT22;9284;52.298;21.164;2024-01-10T08:38:03;-7.40;88.30
18317;DHT22;9284;52.298;21.164;2024-01-10T08:40:34;-7.30;28.30
18317;DHT22;9284;52.298;21.164;2024-01-10T08:43:03;-7.20;1.00
18317;DHT22;9284;52.298;21.164;2024-01-10T08:45:31;-7.30;99.90
18317;DHT22;9284;52.298;21.164;2024-01-10T08:48:00;-7.30;99.90
18317;DHT22;9284;52.298;21.164;2024-01-10T08:50:33;-7.30;1.00
18317;DHT22;9284;52.298;21.164;2024-01-10T08:53:02;-7.00;1.00
18317;DHT22;9284;52.298;21.164;2024-01-10T08:55:32;-7.20;1.00
18317;DHT22;9284;52.298;21.164;2024-01-10T08:58:01;-7.20;1.00
18317;DHT22;9284;52.298;21.164;2024-01-10T09:00:33;-7.10;1.00
18317;DHT22;9284;52.298;21.164;2024-01-10T09:03:04;-7.20;1.00
18317;DHT22;9284;52.298;21.164;2024-01-10T09:05:34;-7.20;1.00
18317;DHT22;9284;52.298;21.164;2024-01-10T09:08:04;-7.20;1.00
18317;DHT22;9284;52.298;21.164;2024-01-10T09:10:34;-7.10;1.00
18317;DHT22;9284;52.298;21.164;2024-01-10T09:13:05;-7.20;1.00
18317;DHT22;9284;52.298;21.164;2024-01-10T09:15:34;-7.00;1.00
18317;DHT22;9284;52.298;21.164;2024-01-10T09:18:04;-7.10;1.00
18317;DHT22;9284;52.298;21.164;2024-01-10T09:20:35;-7.20;1.00
18317;DHT22;9284;52.298;21.164;2024-01-10T09:23:04;-7.10;99.90
18317;DHT22;9284;52.298;21.164;2024-01-10T09:25:32;-7.00;99.90
18317;DHT22;9284;52.298;21.164;2024-01-10T09:28:01;-7.10;97.50
18317;DHT22;9284;52.298;21.164;2024-01-10T09:30:29;-7.00;99.90
18317;DHT22;9284;52.298;21.164;2024-01-10T09:32:58;-7.00;99.90
18317;DHT22;9284;52.298;21.164;2024-01-10T09:35:27;-6.90;99.90
18317;DHT22;9284;52.298;21.164;2024-01-10T09:37:57;-6.90;99.90
18317;DHT22;9284;52.298;21.164;2024-01-10T09:40:27;-7.00;99.90
18317;DHT22;9284;52.298;21.164;2024-01-10T09:42:56;-7.00;1.00
18317;DHT22;9284;52.298;21.164;2024-01-10T09:45:26;-7.00;1.00
18317;DHT22;9284;52.298;21.164;2024-01-10T09:47:56;-7.00;1.00
18317;DHT22;9284;52.298;21.164;2024-01-10T09:50:28;-6.80;1.00
18317;DHT22;9284;52.298;21.164;2024-01-10T09:53:05;-6.80;1.00
18317;DHT22;9284;52.298;21.164;2024-01-10T09:55:35;-6.80;1.00
18317;DHT22;9284;52.298;21.164;2024-01-10T09:58:04;-6.70;99.90
18317;DHT22;9284;52.298;21.164;2024-01-10T10:00:36;-6.50;99.90
18317;DHT22;9284;52.298;21.164;2024-01-10T10:03:07;-6.60;99.90
18317;DHT22;9284;52.298;21.164;2024-01-10T10:05:40;-6.60;99.90
18317;DHT22;9284;52.298;21.164;2024-01-10T10:08:14;-6.60;99.90
18317;DHT22;9284;52.298;21.164;2024-01-10T10:10:48;-6.70;99.90
18317;DHT22;9284;52.298;21.164;2024-01-10T10:13:27;-6.50;99.90
18317;DHT22;9284;52.298;21.164;2024-01-10T10:16:00;-6.40;84.30
18317;DHT22;9284;52.298;21.164;2024-01-10T10:18:31;-6.40;1.00
18317;DHT22;9284;52.298;21.164;2024-01-10T10:21:07;-6.30;1.00
18317;DHT22;9284;52.298;21.164;2024-01-10T10:23:42;-6.30;1.00
18317;DHT22;9284;52.298;21.164;2024-01-10T10:26:15;-6.30;1.00
18317;DHT22;9284;52.298;21.164;2024-01-10T10:28:49;-6.40;1.00
18317;DHT22;9284;52.298;21.164;2024-01-10T10:31:19;-6.30;1.00
18317;DHT22;9284;52.298;21.164;2024-01-10T10:33:49;-6.20;1.00
18317;DHT22;9284;52.298;21.164;2024-01-10T10:36:18;-6.20;1.00
18317;DHT22;9284;52.298;21.164;2024-01-10T10:38:49;-6.00;1.00
18317;DHT22;9284;52.298;21.164;2024-01-10T10:41:18;-6.00;1.00
18317;DHT22;9284;52.298;21.164;2024-01-10T10:43:48;-5.90;99.90
18317;DHT22;9284;52.298;21.164;2024-01-10T10:46:18;-5.80;99.90
18317;DHT22;9284;52.298;21.164;2024-01-10T10:48:49;-5.80;99.90
18317;DHT22;9284;52.298;21.164;2024-01-10T10:51:25;-5.60;99.90
18317;DHT22;9284;52.298;21.164;2024-01-10T10:53:59;-5.60;99.90
18317;DHT22;9284;52.298;21.164;2024-01-10T10:56:30;-5.50;9.70
18317;DHT22;9284;52.298;21.164;2024-01-10T10:59:00;-5.50;1.00
18317;DHT22;9284;52.298;21.164;2024-01-10T11:01:29;-5.60;1.00
18317;DHT22;9284;52.298;21.164;2024-01-10T11:03:59;-5.60;1.00
18317;DHT22;9284;52.298;21.164;2024-01-10T11:06:31;-5.50;1.00
18317;DHT22;9284;52.298;21.164;2024-01-10T11:09:05;-5.40;1.00
18317;DHT22;9284;52.298;21.164;2024-01-10T11:11:44;-5.40;1.00
18317;DHT22;9284;52.298;21.164;2024-01-10T11:14:25;-5.50;1.00
18317;DHT22;9284;52.298;21.164;2024-01-10T11:17:25;-5.60;1.00
18317;DHT22;9284;52.298;21.164;2024-01-10T11:20:27;-5.60;1.00
18317;DHT22;9284;52.298;21.164;2024-01-10T11:23:20;-5.50;1.00
18317;DHT22;9284;52.298;21.164;2024-01-10T11:25:56;-5.50;1.00
18317;DHT22;9284;52.298;21.164;2024-01-10T11:28:25;-5.40;1.00
18317;DHT22;9284;52.298;21.164;2024-01-10T11:30:55;-5.40;1.00
18317;DHT22;9284;52.298;21.164;2024-01-10T11:33:25;-5.30;1.00
18317;DHT22;9284;52.298;21.164;2024-01-10T11:36:13;-5.60;1.00
18317;DHT22;9284;52.298;21.164;2024-01-10T11:41:30;-5.40;1.00
18317;DHT22;9284;52.298;21.164;2024-01-10T11:47:07;-5.40;1.00
18317;DHT22;9284;52.298;21.164;2024-01-10T11:49:38;-5.40;1.00
18317;DHT22;9284;52.298;21.164;2024-01-10T11:52:09;-5.40;1.00
18317;DHT22;9284;52.298;21.164;2024-01-10T11:54:38;-5.20;1.00
18317;DHT22;9284;52.298;21.164;2024-01-10T11:57:12;-5.30;1.00
18317;DHT22;9284;52.298;21.164;2024-01-10T11:59:42;-5.10;1.00
18317;DHT22;9284;52.298;21.164;2024-01-10T12:02:13;-5.10;1.00
18317;DHT22;9284;52.298;21.164;2024-01-10T12:04:42;-5.10;1.00
18317;DHT22;9284;52.298;21.164;2024-01-10T12:07:16;-5.10;1.00
18317;DHT22;9284;52.298;21.164;2024-01-10T12:09:49;-5.20;1.00
18317;DHT22;9284;52.298;21.164;2024-01-10T12:12:20;-5.10;1.00
18317;DHT22;9284;52.298;21.164;2024-01-10T12:14:50;-5.20;99.90
18317;DHT22;9284;52.298;21.164;2024-01-10T12:17:26;-5.00;99.90
18317;DHT22;9284;52.298;21.164;2024-01-10T12:19:55;-5.00;99.90
18317;DHT22;9284;52.298;21.164;2024-01-10T12:22:24;-5.00;99.90
18317;DHT22;9284;52.298;21.164;2024-01-10T12:24:56;-4.90;99.90
18317;DHT22;9284;52.298;21.164;2024-01-10T12:27:36;-5.00;99.90
18317;DHT22;9284;52.298;21.164;2024-01-10T12:30:06;-5.00;99.90
18317;DHT22;9284;52.298;21.164;2024-01-10T12:32:35;-5.10;1.00
18317;DHT22;9284;52.298;21.164;2024-01-10T12:35:05;-5.00;1.00
18317;DHT22;9284;52.298;21.164;2024-01-10T12:37:35;-5.00;1.00
18317;DHT22;9284;52.298;21.164;2024-01-10T12:40:06;-5.00;1.00
18317;DHT22;9284;52.298;21.164;2024-01-10T12:42:38;-5.00;1.00
18317;DHT22;9284;52.298;21.164;2024-01-10T12:45:20;-5.00;1.00
18317;DHT22;9284;52.298;21.164;2024-01-10T12:47:49;-5.10;1.00
18317;DHT22;9284;52.298;21.164;2024-01-10T12:50:20;-4.90;1.00
18317;DHT22;9284;52.298;21.164;2024-01-10T12:52:49;-5.00;1.00
18317;DHT22;9284;52.298;21.164;2024-01-10T12:55:17;-5.00;1.00
18317;DHT22;9284;52.298;21.164;2024-01-10T12:57:48;-5.00;1.00
18317;DHT22;9284;52.298;21.164;2024-01-10T13:00:17;-5.00;1.00
18317;DHT22;9284;52.298;21.164;2024-01-10T13:02:46;-5.10;1.00
18317;DHT22;9284;52.298;21.164;2024-01-10T13:05:15;-5.10;1.00
18317;DHT22;9284;52.298;21.164;2024-01-10T13:07:47;-5.10;1.00
18317;DHT22;9284;52.298;21.164;2024-01-10T13:10:16;-5.10;1.00
18317;DHT22;9284;52.298;21.164;2024-01-10T13:12:49;-5.10;1.00
18317;DHT22;9284;52.298;21.164;2024-01-10T13:15:17;-5.10;1.00
18317;DHT22;9284;52.298;21.164;2024-01-10T13:17:47;-5.00;1.00
18317;DHT22;9284;52.298;21.164;2024-01-10T13:20:19;-5.10;1.00
18317;DHT22;9284;52.298;21.164;2024-01-10T13:22:47;-5.10;4.00
18317;DHT22;9284;52.298;21.164;2024-01-10T13:25:18;-5.30;99.90
18317;DHT22;9284;52.298;21.164;2024-01-10T13:27:51;-5.20;96.40
18317;DHT22;9284;52.298;21.164;2024-01-10T13:30:20;-5.30;99.90
18317;DHT22;9284;52.298;21.164;2024-01-10T13:32:49;-5.30;99.90
18317;DHT22;9284;52.298;21.164;2024-01-10T13:35:19;-5.20;99.90
18317;DHT22;9284;52.298;21.164;2024-01-10T13:37:48;-5.20;99.90
18317;DHT22;9284;52.298;21.164;2024-01-10T13:40:19;-5.40;99.90
18317;DHT22;9284;52.298;21.164;2024-01-10T13:42:53;-5.30;99.90
18317;DHT22;9284;52.298;21.164;2024-01-10T13:45:25;-5.40;99.90
18317;DHT22;9284;52.298;21.164;2024-01-10T13:47:53;-5.40;99.90
18317;DHT22;9284;52.298;21.164;2024-01-10T13:50:24;-5.50;1.00
18317;DHT22;9284;52.298;21.164;2024-01-10T13:52:54;-5.50;1.00
18317;DHT22;9284;52.298;21.164;2024-01-10T13:55:24;-5.60;1.00
18317;DHT22;9284;52.298;21.164;2024-01-10T13:58:06;-5.60;1.00
18317;DHT22;9284;52.298;21.164;2024-01-10T14:00:37;-5.60;1.00
18317;DHT22;9284;52.298;21.164;2024-01-10T14:03:11;-5.50;1.00
18317;DHT22;9284;52.298;21.164;2024-01-10T14:05:42;-5.60;1.00
18317;DHT22;9284;52.298;21.164;2024-01-10T14:08:12;-5.60;99.90
18317;DHT22;9284;52.298;21.164;2024-01-10T14:10:41;-5.60;99.90
18317;DHT22;9284;52.298;21.164;2024-01-10T14:13:13;-5.60;1.00
18317;DHT22;9284;52.298;21.164;2024-01-10T14:15:41;-5.60;1.00
18317;DHT22;9284;52.298;21.164;2024-01-10T14:18:13;-5.50;1.00
18317;DHT22;9284;52.298;21.164;2024-01-10T14:20:43;-5.50;2.30
18317;DHT22;9284;52.298;21.164;2024-01-10T14:23:11;-5.60;97.80
18317;DHT22;9284;52.298;21.164;2024-01-10T14:25:40;-5.60;99.90
18317;DHT22;9284;52.298;21.164;2024-01-10T14:28:09;-5.60;99.90
18317;DHT22;9284;52.298;21.164;2024-01-10T14:30:39;-5.60;99.90
18317;DHT22;9284;52.298;21.164;2024-01-10T14:33:11;-5.60;99.90
18317;DHT22;9284;52.298;21.164;2024-01-10T14:35:41;-5.40;1.00
18317;DHT22;9284;52.298;21.164;2024-01-10T14:38:10;-5.60;1.00
18317;DHT22;9284;52.298;21.164;2024-01-10T14:40:38;-5.60;1.00
18317;DHT22;9284;52.298;21.164;2024-01-10T14:43:07;-5.60;1.00
18317;DHT22;9284;52.298;21.164;2024-01-10T14:45:36;-5.70;1.00
18317;DHT22;9284;52.298;21.164;2024-01-10T14:48:08;-5.70;1.00
18317;DHT22;9284;52.298;21.164;2024-01-10T14:50:40;-5.80;1.00
18317;DHT22;9284;52.298;21.164;2024-01-10T14:53:09;-5.90;99.90
18317;DHT22;9284;52.298;21.164;2024-01-10T14:55:37;-5.90;99.90
18317;DHT22;9284;52.298;21.164;2024-01-10T14:58:06;-6.00;99.90
18317;DHT22;9284;52.298;21.164;2024-01-10T15:00:36;-6.00;1.00
18317;DHT22;9284;52.298;21.164;2024-01-10T15:03:12;-5.90;1.00
18317;DHT22;9284;52.298;21.164;2024-01-10T15:05:52;-6.10;1.00
18317;DHT22;9284;52.298;21.164;2024-01-10T15:08:24;-6.10;99.90
18317;DHT22;9284;52.298;21.164;2024-01-10T15:10:54;-6.10;99.90
18317;DHT22;9284;52.298;21.164;2024-01-10T15:13:23;-6.20;1.00
18317;DHT22;9284;52.298;21.164;2024-01-10T15:15:52;-6.10;1.00
18317;DHT22;9284;52.298;21.164;2024-01-10T15:18:27;-6.20;1.00
18317;DHT22;9284;52.298;21.164;2024-01-10T15:21:00;-6.20;1.00
18317;DHT22;9284;52.298;21.164;2024-01-10T15:23:29;-6.30;1.00
18317;DHT22;9284;52.298;21.164;2024-01-10T15:25:59;-6.30;1.00
18317;DHT22;9284;52.298;21.164;2024-01-10T15:28:28;-6.40;99.90
18317;DHT22;9284;52.298;21.164;2024-01-10T15:30:57;-6.40;99.90
18317;DHT22;9284;52.298;21.164;2024-01-10T15:33:34;-6.30;99.90
18317;DHT22;9284;52.298;21.164;2024-01-10T15:36:03;-6.40;1.00
18317;DHT22;9284;52.298;21.164;2024-01-10T15:38:32;-6.60;1.00
18317;DHT22;9284;52.298;21.164;2024-01-10T15:41:00;-6.60;1.00
18317;DHT22;9284;52.298;21.164;2024-01-10T15:43:29;-6.50;99.90
18317;DHT22;9284;52.298;21.164;2024-01-10T15:45:58;-6.40;1.00
18317;DHT22;9284;52.298;21.164;2024-01-10T15:48:28;-6.30;99.90
18317;DHT22;9284;52.298;21.164;2024-01-10T15:50:58;-6.20;99.90
18317;DHT22;9284;52.298;21.164;2024-01-10T15:53:33;-6.10;99.90
18317;DHT22;9284;52.298;21.164;2024-01-10T15:56:05;-6.00;99.90
18317;DHT22;9284;52.298;21.164;2024-01-10T15:58:35;-5.90;99.90
18317;DHT22;9284;52.298;21.164;2024-01-10T16:01:04;-5.90;99.90
18317;DHT22;9284;52.298;21.164;2024-01-10T16:03:32;-5.80;99.90
18317;DHT22;9284;52.298;21.164;2024-01-10T16:06:06;-5.70;66.50